createdAt,value
2022-12-24T00:00:16.759Z,998.18
2022-12-24T00:01:16.711Z,998.21
2022-12-24T00:02:16.847Z,998.24
2022-12-24T00:03:16.820Z,998.19
2022-12-24T00:04:16.674Z,998.20
2022-12-24T00:05:16.670Z,998.24
2022-12-24T00:06:16.660Z,998.22
2022-12-24T00:07:16.633Z,998.28
2022-12-24T00:08:16.622Z,998.22
2022-12-24T00:09:16.611Z,998.29
2022-12-24T00:10:16.620Z,998.23
2022-12-24T00:11:16.590Z,998.26
2022-12-24T00:12:16.591Z,998.24
2022-12-24T00:13:16.574Z,998.29
2022-12-24T00:14:16.581Z,998.31
2022-12-24T00:15:16.560Z,998.20
2022-12-24T00:16:16.595Z,998.22
2022-12-24T00:17:16.614Z,998.23
2022-12-24T00:18:16.518Z,998.18
2022-12-24T00:19:16.504Z,998.21
2022-12-24T00:20:16.494Z,998.19
2022-12-24T00:21:16.482Z,998.15
2022-12-24T00:22:16.468Z,998.19
2022-12-24T00:23:16.459Z,998.26
2022-12-24T00:24:16.454Z,998.14
2022-12-24T00:25:16.429Z,998.17
2022-12-24T00:26:16.423Z,998.19
2022-12-24T00:27:16.419Z,998.22
2022-12-24T00:28:16.407Z,998.20
2022-12-24T00:29:16.383Z,998.22
2022-12-24T00:30:16.408Z,998.25
2022-12-24T00:31:16.566Z,998.18
2022-12-24T00:32:16.356Z,998.26
2022-12-24T00:33:22.441Z,998.27
2022-12-24T00:34:16.327Z,998.20
2022-12-24T00:35:16.322Z,998.23
2022-12-24T00:36:16.321Z,998.22
2022-12-24T00:37:16.299Z,998.27
2022-12-24T00:38:16.301Z,998.23
2022-12-24T00:39:16.273Z,998.21
2022-12-24T00:40:16.266Z,998.22
2022-12-24T00:41:16.260Z,998.21
2022-12-24T00:42:16.233Z,998.23
2022-12-24T00:43:16.231Z,998.22
2022-12-24T00:44:16.218Z,998.28
2022-12-24T00:45:16.213Z,998.28
2022-12-24T00:46:16.276Z,998.29
2022-12-24T00:47:16.182Z,998.29
2022-12-24T00:48:16.177Z,998.29
2022-12-24T00:49:16.166Z,998.29
2022-12-24T00:50:16.152Z,998.33
2022-12-24T00:51:16.176Z,998.34
2022-12-24T00:52:16.124Z,998.31
2022-12-24T00:53:16.110Z,998.29
2022-12-24T00:54:16.109Z,998.33
2022-12-24T00:55:16.122Z,998.27
2022-12-24T00:56:16.081Z,998.34
2022-12-24T00:57:16.065Z,998.31
2022-12-24T00:58:16.053Z,998.42
2022-12-24T00:59:16.047Z,998.40
2022-12-24T01:00:16.054Z,998.42
2022-12-24T01:01:16.236Z,998.51
2022-12-24T01:02:16.403Z,998.47
2022-12-24T01:03:16.056Z,998.41
2022-12-24T01:04:15.995Z,998.42
2022-12-24T01:05:15.974Z,998.46
2022-12-24T01:06:15.961Z,998.52
2022-12-24T01:07:15.958Z,998.48
2022-12-24T01:08:15.945Z,998.55
2022-12-24T01:09:15.940Z,998.51
2022-12-24T01:10:15.936Z,998.54
2022-12-24T01:11:15.955Z,998.55
2022-12-24T01:12:15.907Z,998.51
2022-12-24T01:13:15.890Z,998.53
2022-12-24T01:14:15.888Z,998.53
2022-12-24T01:15:15.888Z,998.61
2022-12-24T01:16:15.983Z,998.61
2022-12-24T01:17:15.835Z,998.54
2022-12-24T01:18:15.858Z,998.49
2022-12-24T01:19:15.837Z,998.65
2022-12-24T01:20:15.816Z,998.62
2022-12-24T01:21:15.854Z,998.61
2022-12-24T01:22:15.795Z,998.60
2022-12-24T01:23:15.786Z,998.67
2022-12-24T01:24:15.837Z,998.62
2022-12-24T01:25:15.857Z,998.62
2022-12-24T01:26:15.749Z,998.66
2022-12-24T01:27:15.760Z,998.73
2022-12-24T01:28:15.736Z,998.70
2022-12-24T01:29:15.758Z,998.67
2022-12-24T01:30:15.780Z,998.67
2022-12-24T01:31:15.771Z,998.66
2022-12-24T01:32:15.671Z,998.62
2022-12-24T01:33:15.659Z,998.65
2022-12-24T01:34:15.673Z,998.66
2022-12-24T01:35:15.639Z,998.66
2022-12-24T01:36:15.625Z,998.70
2022-12-24T01:37:15.627Z,998.73
2022-12-24T01:38:15.603Z,998.67
2022-12-24T01:39:15.591Z,998.68
2022-12-24T01:40:15.578Z,998.67
2022-12-24T01:41:15.569Z,998.69
2022-12-24T01:42:15.559Z,998.65
2022-12-24T01:43:15.545Z,998.71
2022-12-24T01:44:15.546Z,998.71
2022-12-24T01:45:15.531Z,998.73
2022-12-24T01:46:15.594Z,998.68
2022-12-24T01:47:15.508Z,998.71
2022-12-24T01:48:15.481Z,998.80
2022-12-24T01:49:15.476Z,998.81
2022-12-24T01:50:15.487Z,998.83
2022-12-24T01:51:15.447Z,998.85
2022-12-24T01:52:15.453Z,998.87
2022-12-24T01:53:15.428Z,998.84
2022-12-24T01:54:15.417Z,998.85
2022-12-24T01:55:15.409Z,998.89
2022-12-24T01:56:15.393Z,998.89
2022-12-24T01:57:15.387Z,998.86
2022-12-24T01:58:15.380Z,998.85
2022-12-24T01:59:15.364Z,998.90
2022-12-24T02:00:15.364Z,998.91
2022-12-24T02:01:15.451Z,998.92
2022-12-24T02:02:15.607Z,998.94
2022-12-24T02:03:15.349Z,998.92
2022-12-24T02:04:15.297Z,998.94
2022-12-24T02:05:15.311Z,998.97
2022-12-24T02:06:15.312Z,999.05
2022-12-24T02:07:15.266Z,999.04
2022-12-24T02:08:15.269Z,999.03
2022-12-24T02:09:15.272Z,999.03
2022-12-24T02:10:15.227Z,999.05
2022-12-24T02:11:15.256Z,999.09
2022-12-24T02:12:15.213Z,999.16
2022-12-24T02:13:15.201Z,999.19
2022-12-24T02:14:15.195Z,999.17
2022-12-24T02:15:15.181Z,999.13
2022-12-24T02:16:15.225Z,999.15
2022-12-24T02:17:15.154Z,999.18
2022-12-24T02:18:15.134Z,999.17
2022-12-24T02:19:15.128Z,999.20
2022-12-24T02:20:15.129Z,999.18
2022-12-24T02:21:15.115Z,999.25
2022-12-24T02:22:15.117Z,999.20
2022-12-24T02:23:15.076Z,999.24
2022-12-24T02:24:15.067Z,999.23
2022-12-24T02:25:15.076Z,999.28
2022-12-24T02:26:15.051Z,999.29
2022-12-24T02:27:15.039Z,999.31
2022-12-24T02:28:15.030Z,999.30
2022-12-24T02:29:15.006Z,999.31
2022-12-24T02:30:15.001Z,999.35
2022-12-24T02:31:15.032Z,999.39
2022-12-24T02:32:14.986Z,999.46
2022-12-24T02:33:14.987Z,999.46
2022-12-24T02:34:14.966Z,999.44
2022-12-24T02:35:14.969Z,999.38
2022-12-24T02:36:14.931Z,999.41
2022-12-24T02:37:14.927Z,999.47
2022-12-24T02:38:14.934Z,999.51
2022-12-24T02:39:14.897Z,999.54
2022-12-24T02:40:16.722Z,999.55
2022-12-24T02:41:14.880Z,999.47
2022-12-24T02:42:14.863Z,999.52
2022-12-24T02:43:14.843Z,999.51
2022-12-24T02:44:14.837Z,999.52
2022-12-24T02:45:14.822Z,999.48
2022-12-24T02:46:14.916Z,999.53
2022-12-24T02:47:14.803Z,999.54
2022-12-24T02:48:14.806Z,999.55
2022-12-24T02:49:14.772Z,999.55
2022-12-24T02:50:14.769Z,999.62
2022-12-24T02:51:14.753Z,999.56
2022-12-24T02:52:14.788Z,999.56
2022-12-24T02:53:14.734Z,999.61
2022-12-24T02:54:14.746Z,999.63
2022-12-24T02:55:14.728Z,999.69
2022-12-24T02:56:14.693Z,999.70
2022-12-24T02:57:14.689Z,999.71
2022-12-24T02:58:14.670Z,999.73
2022-12-24T02:59:14.668Z,999.72
2022-12-24T03:00:14.649Z,999.73
2022-12-24T03:01:14.830Z,999.70
2022-12-24T03:02:14.772Z,999.74
2022-12-24T03:03:14.623Z,999.72
2022-12-24T03:04:14.613Z,999.72
2022-12-24T03:05:14.601Z,999.73
2022-12-24T03:06:14.575Z,999.81
2022-12-24T03:07:14.613Z,999.76
2022-12-24T03:08:14.561Z,999.76
2022-12-24T03:09:14.547Z,999.74
2022-12-24T03:10:14.568Z,999.75
2022-12-24T03:11:14.517Z,999.75
2022-12-24T03:12:14.504Z,999.77
2022-12-24T03:13:14.500Z,999.79
2022-12-24T03:14:14.490Z,999.83
2022-12-24T03:15:14.473Z,999.79
2022-12-24T03:16:14.503Z,999.82
2022-12-24T03:17:14.447Z,999.81
2022-12-24T03:18:14.442Z,999.82
2022-12-24T03:19:14.423Z,999.82
2022-12-24T03:20:14.419Z,999.81
2022-12-24T03:21:14.408Z,999.74
2022-12-24T03:22:14.399Z,999.75
2022-12-24T03:23:14.377Z,999.84
2022-12-24T03:24:14.368Z,999.84
2022-12-24T03:25:14.377Z,999.81
2022-12-24T03:26:14.379Z,999.85
2022-12-24T03:27:14.332Z,999.91
2022-12-24T03:28:14.324Z,999.92
2022-12-24T03:29:14.314Z,999.95
2022-12-24T03:30:14.307Z,999.96
2022-12-24T03:31:14.422Z,999.93
2022-12-24T03:32:14.284Z,999.97
2022-12-24T03:33:14.380Z,1000.01
2022-12-24T03:34:14.250Z,1000.02
2022-12-24T03:35:14.252Z,999.96
2022-12-24T03:36:14.231Z,1000.06
2022-12-24T03:37:14.228Z,1000.02
2022-12-24T03:38:14.217Z,1000.11
2022-12-24T03:39:14.193Z,1000.12
2022-12-24T03:40:14.182Z,1000.08
2022-12-24T03:41:14.176Z,1000.13
2022-12-24T03:42:14.187Z,1000.17
2022-12-24T03:43:14.169Z,1000.15
2022-12-24T03:44:14.160Z,1000.15
2022-12-24T03:45:14.136Z,1000.13
2022-12-24T03:46:14.300Z,1000.16
2022-12-24T03:47:14.125Z,1000.15
2022-12-24T03:48:14.091Z,1000.18
2022-12-24T03:49:14.085Z,1000.19
2022-12-24T03:50:14.085Z,1000.19
2022-12-24T03:51:14.074Z,1000.20
2022-12-24T03:52:14.051Z,1000.21
2022-12-24T03:53:14.027Z,1000.25
2022-12-24T03:54:14.016Z,1000.32
2022-12-24T03:55:14.022Z,1000.29
2022-12-24T03:56:14.000Z,1000.32
2022-12-24T03:57:13.995Z,1000.30
2022-12-24T03:58:13.999Z,1000.32
2022-12-24T03:59:13.970Z,1000.35
2022-12-24T04:00:13.953Z,1000.41
2022-12-24T04:01:14.051Z,1000.38
2022-12-24T04:02:14.114Z,1000.38
2022-12-24T04:03:14.014Z,1000.40
2022-12-24T04:04:13.913Z,1000.40
2022-12-24T04:05:13.895Z,1000.35
2022-12-24T04:06:13.877Z,1000.40
2022-12-24T04:07:13.879Z,1000.43
2022-12-24T04:08:13.852Z,1000.43
2022-12-24T04:09:13.843Z,1000.45
2022-12-24T04:10:13.844Z,1000.40
2022-12-24T04:11:13.823Z,1000.43
2022-12-24T04:12:13.816Z,1000.42
2022-12-24T04:13:13.794Z,1000.40
2022-12-24T04:14:13.811Z,1000.44
2022-12-24T04:15:13.791Z,1000.35
2022-12-24T04:16:13.842Z,1000.34
2022-12-24T04:17:13.758Z,1000.30
2022-12-24T04:18:13.757Z,1000.29
2022-12-24T04:19:13.724Z,1000.34
2022-12-24T04:20:13.724Z,1000.28
2022-12-24T04:21:13.713Z,1000.35
2022-12-24T04:22:13.696Z,1000.42
2022-12-24T04:23:13.718Z,1000.41
2022-12-24T04:24:13.682Z,1000.44
2022-12-24T04:25:13.653Z,1000.43
2022-12-24T04:26:13.644Z,1000.45
2022-12-24T04:27:13.632Z,1000.44
2022-12-24T04:28:13.621Z,1000.48
2022-12-24T04:29:13.631Z,1000.50
2022-12-24T04:30:13.622Z,1000.53
2022-12-24T04:31:13.592Z,1000.55
2022-12-24T04:32:13.629Z,1000.46
2022-12-24T04:33:13.569Z,1000.61
2022-12-24T04:34:13.562Z,1000.57
2022-12-24T04:35:13.545Z,1000.57
2022-12-24T04:36:13.530Z,1000.65
2022-12-24T04:37:13.520Z,1000.62
2022-12-24T04:38:13.515Z,1000.72
2022-12-24T04:39:13.500Z,1000.71
2022-12-24T04:40:13.487Z,1000.72
2022-12-24T04:41:20.601Z,1000.74
2022-12-24T04:42:13.472Z,1000.78
2022-12-24T04:43:13.461Z,1000.78
2022-12-24T04:44:13.485Z,1000.83
2022-12-24T04:45:13.431Z,1000.87
2022-12-24T04:46:13.501Z,1000.85
2022-12-24T04:47:13.404Z,1000.82
2022-12-24T04:48:13.389Z,1000.90
2022-12-24T04:49:13.400Z,1000.98
2022-12-24T04:50:13.372Z,1000.97
2022-12-24T04:51:13.367Z,1000.96
2022-12-24T04:52:13.355Z,1000.93
2022-12-24T04:53:13.339Z,1000.95
2022-12-24T04:54:13.326Z,1000.95
2022-12-24T04:55:13.308Z,1000.96
2022-12-24T04:56:13.297Z,1001.03
2022-12-24T04:57:13.295Z,1000.97
2022-12-24T04:58:13.275Z,1000.97
2022-12-24T04:59:13.275Z,1000.95
2022-12-24T05:00:13.264Z,1000.99
2022-12-24T05:01:13.320Z,1000.98
2022-12-24T05:02:13.531Z,1001.00
2022-12-24T05:03:13.295Z,1000.98
2022-12-24T05:04:13.214Z,1001.07
2022-12-24T05:05:13.195Z,1001.04
2022-12-24T05:06:13.185Z,1001.05
2022-12-24T05:07:13.179Z,1001.09
2022-12-24T05:08:13.166Z,1001.12
2022-12-24T05:09:13.152Z,1001.09
2022-12-24T05:10:13.138Z,1001.08
2022-12-24T05:11:13.131Z,1001.07
2022-12-24T05:12:13.118Z,1001.09
2022-12-24T05:13:13.127Z,1001.07
2022-12-24T05:14:13.097Z,1001.11
2022-12-24T05:15:13.081Z,1001.09
2022-12-24T05:16:13.247Z,1001.08
2022-12-24T05:17:13.135Z,1001.11
2022-12-24T05:18:13.080Z,1001.05
2022-12-24T05:19:13.066Z,1001.11
2022-12-24T05:20:13.021Z,1001.03
2022-12-24T05:21:13.006Z,1001.07
2022-12-24T05:22:13.008Z,1001.06
2022-12-24T05:23:12.989Z,1001.07
2022-12-24T05:24:12.994Z,1001.12
2022-12-24T05:25:12.966Z,1001.12
2022-12-24T05:26:12.950Z,1001.19
2022-12-24T05:27:12.953Z,1001.18
2022-12-24T05:28:12.925Z,1001.12
2022-12-24T05:29:12.924Z,1001.12
2022-12-24T05:30:12.919Z,1001.05
2022-12-24T05:31:12.957Z,1001.06
2022-12-24T05:32:12.881Z,1001.09
2022-12-24T05:33:12.873Z,1001.01
2022-12-24T05:34:12.890Z,1001.08
2022-12-24T05:35:12.854Z,1001.08
2022-12-24T05:36:12.828Z,1001.06
2022-12-24T05:37:12.830Z,1001.13
2022-12-24T05:38:12.810Z,1001.11
2022-12-24T05:39:15.743Z,1001.15
2022-12-24T05:40:12.796Z,1001.18
2022-12-24T05:41:12.783Z,1001.20
2022-12-24T05:42:12.767Z,1001.09
2022-12-24T05:43:12.751Z,1001.12
2022-12-24T05:44:12.768Z,1001.07
2022-12-24T05:45:12.750Z,1001.08
2022-12-24T05:46:12.809Z,1001.10
2022-12-24T05:47:12.712Z,1001.18
2022-12-24T05:48:12.698Z,1001.26
2022-12-24T05:49:12.687Z,1001.27
2022-12-24T05:50:12.709Z,1001.31
2022-12-24T05:51:12.669Z,1001.33
2022-12-24T05:52:12.652Z,1001.26
2022-12-24T05:53:12.635Z,1001.26
2022-12-24T05:54:12.642Z,1001.27
2022-12-24T05:55:12.619Z,1001.35
2022-12-24T05:56:12.619Z,1001.29
2022-12-24T05:57:12.595Z,1001.29
2022-12-24T05:58:12.584Z,1001.27
2022-12-24T05:59:12.592Z,1001.38
2022-12-24T06:00:12.568Z,1001.38
2022-12-24T06:01:12.619Z,1001.45
2022-12-24T06:02:12.636Z,1001.45
2022-12-24T06:03:12.529Z,1001.47
2022-12-24T06:04:12.592Z,1001.51
2022-12-24T06:05:12.648Z,1001.48
2022-12-24T06:06:12.522Z,1001.53
2022-12-24T06:07:12.470Z,1001.55
2022-12-24T06:08:12.474Z,1001.55
2022-12-24T06:09:12.451Z,1001.45
2022-12-24T06:10:12.442Z,1001.49
2022-12-24T06:11:12.431Z,1001.48
2022-12-24T06:12:12.436Z,1001.49
2022-12-24T06:13:12.402Z,1001.52
2022-12-24T06:14:12.405Z,1001.54
2022-12-24T06:15:12.382Z,1001.56
2022-12-24T06:16:12.430Z,1001.55
2022-12-24T06:17:12.371Z,1001.55
2022-12-24T06:18:12.349Z,1001.61
2022-12-24T06:19:12.334Z,1001.56
2022-12-24T06:20:12.326Z,1001.60
2022-12-24T06:21:12.333Z,1001.60
2022-12-24T06:22:12.327Z,1001.64
2022-12-24T06:23:12.291Z,1001.65
2022-12-24T06:24:12.293Z,1001.63
2022-12-24T06:25:12.263Z,1001.65
2022-12-24T06:26:12.250Z,1001.71
2022-12-24T06:27:12.245Z,1001.73
2022-12-24T06:28:12.280Z,1001.73
2022-12-24T06:29:12.243Z,1001.69
2022-12-24T06:30:12.206Z,1001.74
2022-12-24T06:31:12.237Z,1001.75
2022-12-24T06:32:12.185Z,1001.79
2022-12-24T06:33:12.177Z,1001.77
2022-12-24T06:34:12.171Z,1001.75
2022-12-24T06:35:12.164Z,1001.84
2022-12-24T06:36:17.151Z,1001.90
2022-12-24T06:37:12.127Z,1001.95
2022-12-24T06:38:12.136Z,1001.93
2022-12-24T06:39:12.111Z,1001.90
2022-12-24T06:40:12.103Z,1001.95
2022-12-24T06:41:12.111Z,1002.02
2022-12-24T06:42:12.074Z,1002.01
2022-12-24T06:43:12.073Z,1002.02
2022-12-24T06:44:12.047Z,1002.08
2022-12-24T06:45:12.025Z,1001.97
2022-12-24T06:46:12.068Z,1002.00
2022-12-24T06:47:12.011Z,1002.05
2022-12-24T06:48:12.014Z,1001.98
2022-12-24T06:49:11.989Z,1002.02
2022-12-24T06:50:11.979Z,1001.99
2022-12-24T06:51:12.009Z,1001.95
2022-12-24T06:52:11.947Z,1001.95
2022-12-24T06:53:11.971Z,1001.95
2022-12-24T06:54:11.956Z,1001.92
2022-12-24T06:55:11.931Z,1001.96
2022-12-24T06:56:11.906Z,1001.96
2022-12-24T06:57:11.925Z,1002.03
2022-12-24T06:58:11.888Z,1002.05
2022-12-24T06:59:11.890Z,1002.07
2022-12-24T07:00:11.855Z,1002.07
2022-12-24T07:01:12.204Z,1002.09
2022-12-24T07:02:12.012Z,1002.15
2022-12-24T07:03:11.824Z,1002.14
2022-12-24T07:04:17.976Z,1002.09
2022-12-24T07:05:11.801Z,1002.13
2022-12-24T07:06:11.788Z,1002.14
2022-12-24T07:07:11.777Z,1002.14
2022-12-24T07:08:11.769Z,1002.15
2022-12-24T07:09:11.752Z,1002.16
2022-12-24T07:10:11.779Z,1002.13
2022-12-24T07:11:11.737Z,1002.25
2022-12-24T07:12:11.724Z,1002.20
2022-12-24T07:13:11.708Z,1002.22
2022-12-24T07:14:11.740Z,1002.25
2022-12-24T07:15:11.687Z,1002.29
2022-12-24T07:16:11.853Z,1002.28
2022-12-24T07:17:11.873Z,1002.34
2022-12-24T07:18:13.655Z,1002.40
2022-12-24T07:19:11.769Z,1002.43
2022-12-24T07:20:11.651Z,1002.40
2022-12-24T07:21:11.622Z,1002.40
2022-12-24T07:22:15.414Z,1002.44
2022-12-24T07:23:11.583Z,1002.50
2022-12-24T07:24:11.579Z,1002.47
2022-12-24T07:25:11.567Z,1002.49
2022-12-24T07:26:11.608Z,1002.49
2022-12-24T07:27:11.551Z,1002.49
2022-12-24T07:28:11.534Z,1002.55
2022-12-24T07:29:11.528Z,1002.61
2022-12-24T07:30:11.530Z,1002.61
2022-12-24T07:31:11.591Z,1002.62
2022-12-24T07:32:11.508Z,1002.63
2022-12-24T07:33:13.483Z,1002.68
2022-12-24T07:34:11.470Z,1002.70
2022-12-24T07:35:11.450Z,1002.70
2022-12-24T07:36:11.444Z,1002.69
2022-12-24T07:37:11.429Z,1002.68
2022-12-24T07:38:11.414Z,1002.62
2022-12-24T07:39:11.428Z,1002.65
2022-12-24T07:40:11.413Z,1002.66
2022-12-24T07:41:11.390Z,1002.67
2022-12-24T07:42:11.393Z,1002.68
2022-12-24T07:43:11.358Z,1002.68
2022-12-24T07:44:11.343Z,1002.68
2022-12-24T07:45:11.353Z,1002.76
2022-12-24T07:46:11.403Z,1002.77
2022-12-24T07:47:11.363Z,1002.75
2022-12-24T07:48:11.299Z,1002.79
2022-12-24T07:49:11.282Z,1002.81
2022-12-24T07:50:11.276Z,1002.80
2022-12-24T07:51:11.272Z,1002.85
2022-12-24T07:52:11.288Z,1002.88
2022-12-24T07:53:11.237Z,1002.89
2022-12-24T07:54:13.258Z,1002.91
2022-12-24T07:55:11.216Z,1002.89
2022-12-24T07:56:13.168Z,1002.93
2022-12-24T07:57:11.195Z,1002.88
2022-12-24T07:58:11.206Z,1002.89
2022-12-24T07:59:11.180Z,1002.93
2022-12-24T08:00:11.175Z,1002.91
2022-12-24T08:01:11.226Z,1002.92
2022-12-24T08:02:17.926Z,1003.01
2022-12-24T08:03:11.287Z,1002.97
2022-12-24T08:04:11.220Z,1002.94
2022-12-24T08:05:11.114Z,1002.92
2022-12-24T08:06:11.099Z,1002.92
2022-12-24T08:07:11.083Z,1002.90
2022-12-24T08:08:13.066Z,1002.90
2022-12-24T08:09:11.067Z,1002.94
2022-12-24T08:10:11.061Z,1002.97
2022-12-24T08:11:11.027Z,1002.93
2022-12-24T08:12:11.026Z,1002.91
2022-12-24T08:13:11.003Z,1002.96
2022-12-24T08:14:11.024Z,1002.95
2022-12-24T08:15:10.990Z,1002.97
2022-12-24T08:16:11.023Z,1002.98
2022-12-24T08:17:10.960Z,1002.98
2022-12-24T08:18:10.949Z,1003.02
2022-12-24T08:19:10.954Z,1003.00
2022-12-24T08:20:10.930Z,1003.02
2022-12-24T08:21:10.920Z,1003.06
2022-12-24T08:22:10.913Z,1002.98
2022-12-24T08:23:10.918Z,1003.01
2022-12-24T08:24:10.884Z,1002.96
2022-12-24T08:25:10.868Z,1002.95
2022-12-24T08:26:10.859Z,1002.98
2022-12-24T08:27:10.838Z,1003.00
2022-12-24T08:28:10.843Z,1002.99
2022-12-24T08:29:10.823Z,1002.98
2022-12-24T08:30:13.741Z,1003.03
2022-12-24T08:31:10.881Z,1003.07
2022-12-24T08:32:10.881Z,1003.07
2022-12-24T08:33:10.771Z,1003.11
2022-12-24T08:34:10.751Z,1003.14
2022-12-24T08:35:10.752Z,1003.13
2022-12-24T08:36:10.748Z,1003.08
2022-12-24T08:37:10.726Z,1003.11
2022-12-24T08:38:10.716Z,1003.14
2022-12-24T08:39:10.697Z,1003.13
2022-12-24T08:40:10.687Z,1003.21
2022-12-24T08:41:10.678Z,1003.16
2022-12-24T08:42:10.728Z,1003.14
2022-12-24T08:43:10.658Z,1003.19
2022-12-24T08:44:10.636Z,1003.21
2022-12-24T08:45:10.633Z,1003.19
2022-12-24T08:46:10.758Z,1003.26
2022-12-24T08:47:10.615Z,1003.23
2022-12-24T08:48:10.593Z,1003.20
2022-12-24T08:49:10.591Z,1003.26
2022-12-24T08:50:10.573Z,1003.24
2022-12-24T08:51:10.683Z,1003.25
2022-12-24T08:52:10.546Z,1003.26
2022-12-24T08:53:10.572Z,1003.24
2022-12-24T08:54:10.535Z,1003.32
2022-12-24T08:55:10.510Z,1003.30
2022-12-24T08:56:10.503Z,1003.27
2022-12-24T08:57:10.503Z,1003.38
2022-12-24T08:58:10.488Z,1003.38
2022-12-24T08:59:10.473Z,1003.32
2022-12-24T09:00:10.476Z,1003.34
2022-12-24T09:01:10.609Z,1003.34
2022-12-24T09:02:10.800Z,1003.31
2022-12-24T09:03:10.512Z,1003.35
2022-12-24T09:04:10.407Z,1003.42
2022-12-24T09:05:10.405Z,1003.41
2022-12-24T09:06:10.396Z,1003.38
2022-12-24T09:07:10.376Z,1003.41
2022-12-24T09:08:10.362Z,1003.44
2022-12-24T09:09:10.359Z,1003.43
2022-12-24T09:10:10.342Z,1003.39
2022-12-24T09:11:10.333Z,1003.45
2022-12-24T09:12:10.368Z,1003.48
2022-12-24T09:13:10.306Z,1003.45
2022-12-24T09:14:10.297Z,1003.53
2022-12-24T09:15:10.280Z,1003.51
2022-12-24T09:16:10.401Z,1003.57
2022-12-24T09:17:10.253Z,1003.56
2022-12-24T09:18:10.269Z,1003.58
2022-12-24T09:19:10.239Z,1003.59
2022-12-24T09:20:10.257Z,1003.66
2022-12-24T09:21:10.216Z,1003.65
2022-12-24T09:22:10.218Z,1003.64
2022-12-24T09:23:10.193Z,1003.69
2022-12-24T09:24:10.181Z,1003.67
2022-12-24T09:25:10.164Z,1003.70
2022-12-24T09:26:10.179Z,1003.76
2022-12-24T09:27:10.139Z,1003.71
2022-12-24T09:28:10.136Z,1003.73
2022-12-24T09:29:10.129Z,1003.78
2022-12-24T09:30:10.108Z,1003.81
2022-12-24T09:31:10.119Z,1003.77
2022-12-24T09:32:10.211Z,1003.81
2022-12-24T09:33:10.074Z,1003.78
2022-12-24T09:34:10.089Z,1003.76
2022-12-24T09:35:10.068Z,1003.75
2022-12-24T09:36:10.036Z,1003.84
2022-12-24T09:37:10.042Z,1003.86
2022-12-24T09:38:10.024Z,1003.86
2022-12-24T09:39:10.013Z,1003.87
2022-12-24T09:40:09.997Z,1003.96
2022-12-24T09:41:09.981Z,1004.02
2022-12-24T09:42:09.973Z,1004.02
2022-12-24T09:43:09.966Z,1003.98
2022-12-24T09:44:09.950Z,1004.03
2022-12-24T09:45:09.945Z,1004.05
2022-12-24T09:46:10.008Z,1004.09
2022-12-24T09:47:10.335Z,1004.12
2022-12-24T09:48:09.912Z,1004.10
2022-12-24T09:49:09.891Z,1004.10
2022-12-24T09:50:09.905Z,1004.12
2022-12-24T09:51:09.872Z,1004.12
2022-12-24T09:52:09.851Z,1004.11
2022-12-24T09:53:09.847Z,1004.09
2022-12-24T09:54:09.858Z,1004.15
2022-12-24T09:55:09.818Z,1004.16
2022-12-24T09:56:09.829Z,1004.16
2022-12-24T09:57:09.847Z,1004.14
2022-12-24T09:58:09.791Z,1004.21
2022-12-24T09:59:09.781Z,1004.23
2022-12-24T10:00:09.771Z,1004.24
2022-12-24T10:01:09.885Z,1004.30
2022-12-24T10:02:09.946Z,1004.29
2022-12-24T10:03:09.817Z,1004.28
2022-12-24T10:04:09.739Z,1004.30
2022-12-24T10:05:09.709Z,1004.36
2022-12-24T10:06:09.727Z,1004.35
2022-12-24T10:07:09.685Z,1004.33
2022-12-24T10:08:09.675Z,1004.42
2022-12-24T10:09:09.664Z,1004.39
2022-12-24T10:10:09.652Z,1004.44
2022-12-24T10:11:09.635Z,1004.46
2022-12-24T10:12:09.623Z,1004.47
2022-12-24T10:13:09.644Z,1004.43
2022-12-24T10:14:09.612Z,1004.45
2022-12-24T10:15:09.589Z,1004.45
2022-12-24T10:16:09.577Z,1004.42
2022-12-24T10:17:09.660Z,1004.45
2022-12-24T10:18:09.564Z,1004.45
2022-12-24T10:19:09.547Z,1004.50
2022-12-24T10:20:09.534Z,1004.47
2022-12-24T10:21:09.524Z,1004.48
2022-12-24T10:22:09.540Z,1004.43
2022-12-24T10:23:09.504Z,1004.55
2022-12-24T10:24:09.482Z,1004.56
2022-12-24T10:25:09.477Z,1004.55
2022-12-24T10:26:09.464Z,1004.56
2022-12-24T10:27:09.467Z,1004.51
2022-12-24T10:28:09.446Z,1004.53
2022-12-24T10:29:09.425Z,1004.59
2022-12-24T10:30:15.009Z,1004.61
2022-12-24T10:31:09.543Z,1004.64
2022-12-24T10:32:09.412Z,1004.63
2022-12-24T10:33:09.384Z,1004.59
2022-12-24T10:34:09.371Z,1004.66
2022-12-24T10:35:09.371Z,1004.62
2022-12-24T10:36:12.240Z,1004.67
2022-12-24T10:37:09.336Z,1004.69
2022-12-24T10:38:09.362Z,1004.72
2022-12-24T10:39:09.316Z,1004.77
2022-12-24T10:40:09.309Z,1004.70
2022-12-24T10:41:09.310Z,1004.74
2022-12-24T10:42:09.300Z,1004.79
2022-12-24T10:43:09.266Z,1004.81
2022-12-24T10:44:09.265Z,1004.89
2022-12-24T10:45:09.269Z,1004.86
2022-12-24T10:46:09.349Z,1004.84
2022-12-24T10:47:09.237Z,1004.76
2022-12-24T10:48:09.219Z,1004.83
2022-12-24T10:49:09.203Z,1004.85
2022-12-24T10:50:09.193Z,1004.84
2022-12-24T10:51:09.184Z,1004.87
2022-12-24T10:52:09.174Z,1004.94
2022-12-24T10:53:09.164Z,1004.90
2022-12-24T10:54:09.173Z,1004.83
2022-12-24T10:55:09.140Z,1004.86
2022-12-24T10:56:09.141Z,1004.91
2022-12-24T10:57:09.122Z,1004.93
2022-12-24T10:58:09.106Z,1004.90
2022-12-24T10:59:09.095Z,1004.90
2022-12-24T11:00:09.089Z,1004.89
2022-12-24T11:01:09.188Z,1004.92
2022-12-24T11:02:09.274Z,1004.94
2022-12-24T11:03:09.177Z,1005.01
2022-12-24T11:04:09.042Z,1004.98
2022-12-24T11:05:09.020Z,1005.02
2022-12-24T11:06:09.038Z,1005.10
2022-12-24T11:07:08.995Z,1005.14
2022-12-24T11:08:08.990Z,1005.06
2022-12-24T11:09:08.973Z,1005.04
2022-12-24T11:10:08.994Z,1005.01
2022-12-24T11:11:08.965Z,1005.06
2022-12-24T11:12:09.837Z,1005.11
2022-12-24T11:13:35.751Z,1005.11
2022-12-24T11:14:08.930Z,1005.11
2022-12-24T11:15:08.916Z,1005.13
2022-12-24T11:16:09.011Z,1005.13
2022-12-24T11:17:08.881Z,1005.05
2022-12-24T11:18:08.878Z,1005.12
2022-12-24T11:19:08.858Z,1005.16
2022-12-24T11:20:08.851Z,1005.13
2022-12-24T11:21:08.842Z,1005.14
2022-12-24T11:22:08.835Z,1005.18
2022-12-24T11:23:08.820Z,1005.16
2022-12-24T11:24:08.832Z,1005.19
2022-12-24T11:25:08.819Z,1005.18
2022-12-24T11:26:08.801Z,1005.12
2022-12-24T11:27:08.779Z,1005.12
2022-12-24T11:28:08.763Z,1005.08
2022-12-24T11:29:08.817Z,1005.11
2022-12-24T11:30:11.899Z,1005.17
2022-12-24T11:31:08.832Z,1005.13
2022-12-24T11:32:08.720Z,1005.13
2022-12-24T11:33:08.707Z,1005.09
2022-12-24T11:34:08.696Z,1005.17
2022-12-24T11:35:08.680Z,1005.14
2022-12-24T11:36:08.671Z,1005.18
2022-12-24T11:37:14.108Z,1005.17
2022-12-24T11:38:08.654Z,1005.14
2022-12-24T11:39:08.636Z,1005.10
2022-12-24T11:40:08.628Z,1005.19
2022-12-24T11:41:08.610Z,1005.31
2022-12-24T11:42:08.622Z,1005.30
2022-12-24T11:43:14.668Z,1005.25
2022-12-24T11:44:08.595Z,1005.27
2022-12-24T11:45:08.585Z,1005.26
2022-12-24T11:46:08.629Z,1005.21
2022-12-24T11:47:08.555Z,1005.13
2022-12-24T11:48:08.537Z,1005.18
2022-12-24T11:49:08.794Z,1005.18
2022-12-24T11:50:18.098Z,1005.25
2022-12-24T11:51:08.502Z,1005.22
2022-12-24T11:52:08.502Z,1005.22
2022-12-24T11:53:08.484Z,1005.23
2022-12-24T11:54:08.478Z,1005.27
2022-12-24T11:55:15.474Z,1005.23
2022-12-24T11:56:08.451Z,1005.22
2022-12-24T11:57:08.438Z,1005.33
2022-12-24T11:58:08.451Z,1005.32
2022-12-24T11:59:08.417Z,1005.38
2022-12-24T12:00:08.403Z,1005.36
2022-12-24T12:01:15.069Z,1005.37
2022-12-24T12:02:08.433Z,1005.40
2022-12-24T12:03:08.408Z,1005.42
2022-12-24T12:04:08.488Z,1005.44
2022-12-24T12:05:08.370Z,1005.34
2022-12-24T12:06:08.332Z,1005.39
2022-12-24T12:07:14.555Z,1005.46
2022-12-24T12:08:08.313Z,1005.41
2022-12-24T12:09:08.310Z,1005.49
2022-12-24T12:10:08.298Z,1005.47
2022-12-24T12:11:08.288Z,1005.53
2022-12-24T12:12:08.268Z,1005.38